CheckWX is a tool to help pilots better visualize weather data.  It is not intended as a substitute for an official pre-flight weather briefing.

23:35:58 UTC

KFDK METAR
Frederick Municipal Airport
Frederick, Maryland, USA
Current

49 mins ago

KFDK 182247Z 31006KT 10SM SKC 13/04 A3001
Observed
Oct-18 @ 22:47 UTC
Wind
  • 310° at 6 KTS
Visibility
10 SM
Flight Rules
VFR
Cloud Levels
  • Clear skies
Temperature
13°C / 55°F
Dewpoint
C / 39°F
Humidity
55%
Altimeter
30.01" Hg
Pressure
1016.22 hPa
Previous

2 hours ago

KFDK 182150Z 33007G11KT 10SM SKC 16/03 A2998
Observed
Oct-18 @ 21:50 UTC
Wind
  • 330° at 7 KTS
  • Gusting to 11 KTS
Visibility
10 SM
Flight Rules
VFR
Cloud Levels
  • Clear skies
Temperature
16°C / 61°F
Dewpoint
C / 37°F
Humidity
42%
Altimeter
29.98" Hg
Pressure
1015.22 hPa
Previous

3 hours ago

KFDK 182050Z 32011G14KT 10SM SKC 17/03 A2998
Observed
Oct-18 @ 20:50 UTC
Wind
  • 320° at 11 KTS
  • Gusting to 14 KTS
Visibility
10 SM
Flight Rules
VFR
Cloud Levels
  • Clear skies
Temperature
17°C / 63°F
Dewpoint
C / 37°F
Humidity
39%
Altimeter
29.98" Hg
Pressure
1015.22 hPa